sensor_id;sensor_type;location;lat;lon;timestamp;pressure;altitude;pressure_sealevel;temperature;humidity
41202;BME280;26936;50.524;8.684;2023-02-21T00:01:26;99812.03;;;7.82;100.00
41202;BME280;26936;50.524;8.684;2023-02-21T00:04:10;99814.41;;;7.83;100.00
41202;BME280;26936;50.524;8.684;2023-02-21T00:06:54;99799.13;;;7.88;100.00
41202;BME280;26936;50.524;8.684;2023-02-21T00:09:38;99810.38;;;7.88;100.00
41202;BME280;26936;50.524;8.684;2023-02-21T00:12:22;99806.31;;;7.89;100.00
41202;BME280;26936;50.524;8.684;2023-02-21T00:15:07;99807.00;;;7.96;100.00
41202;BME280;26936;50.524;8.684;2023-02-21T00:17:51;99807.00;;;7.96;100.00
41202;BME280;26936;50.524;8.684;2023-02-21T00:20:35;99810.22;;;7.95;100.00
41202;BME280;26936;50.524;8.684;2023-02-21T00:23:19;99806.28;;;7.92;100.00
41202;BME280;26936;50.524;8.684;2023-02-21T00:26:04;99800.19;;;7.97;100.00
41202;BME280;26936;50.524;8.684;2023-02-21T00:28:48;99800.47;;;8.03;100.00
41202;BME280;26936;50.524;8.684;2023-02-21T00:31:32;99804.56;;;7.98;100.00
41202;BME280;26936;50.524;8.684;2023-02-21T00:34:16;99790.97;;;7.97;100.00
41202;BME280;26936;50.524;8.684;2023-02-21T00:36:59;99790.13;;;8.00;100.00
41202;BME280;26936;50.524;8.684;2023-02-21T00:39:44;99790.50;;;8.02;100.00
41202;BME280;26936;50.524;8.684;2023-02-21T00:42:27;99801.66;;;8.05;100.00
41202;BME280;26936;50.524;8.684;2023-02-21T00:45:11;99792.50;;;8.01;100.00
41202;BME280;26936;50.524;8.684;2023-02-21T00:47:55;99793.72;;;8.00;100.00
41202;BME280;26936;50.524;8.684;2023-02-21T00:50:39;99796.81;;;8.06;100.00
41202;BME280;26936;50.524;8.684;2023-02-21T00:53:24;99800.06;;;8.04;100.00
41202;BME280;26936;50.524;8.684;2023-02-21T00:56:08;99802.84;;;8.04;100.00
41202;BME280;26936;50.524;8.684;2023-02-21T00:58:51;99801.66;;;8.05;100.00
41202;BME280;26936;50.524;8.684;2023-02-21T01:01:35;99798.78;;;8.09;100.00
41202;BME280;26936;50.524;8.684;2023-02-21T01:04:19;99793.91;;;8.13;100.00
41202;BME280;26936;50.524;8.684;2023-02-21T01:07:03;99792.38;;;8.08;100.00
41202;BME280;26936;50.524;8.684;2023-02-21T01:09:47;99786.72;;;8.12;100.00
41202;BME280;26936;50.524;8.684;2023-02-21T01:12:31;99785.59;;;8.06;100.00
41202;BME280;26936;50.524;8.684;2023-02-21T01:15:15;99790.50;;;8.02;100.00
41202;BME280;26936;50.524;8.684;2023-02-21T01:18:00;99787.63;;;8.05;100.00
41202;BME280;26936;50.524;8.684;2023-02-21T01:20:44;99786.34;;;8.10;100.00
41202;BME280;26936;50.524;8.684;2023-02-21T01:23:28;99786.41;;;8.06;100.00
41202;BME280;26936;50.524;8.684;2023-02-21T01:26:12;99790.88;;;8.04;100.00
41202;BME280;26936;50.524;8.684;2023-02-21T01:28:56;99787.50;;;8.12;100.00
41202;BME280;26936;50.524;8.684;2023-02-21T01:31:40;99789.63;;;8.05;100.00
41202;BME280;26936;50.524;8.684;2023-02-21T01:34:24;99803.34;;;7.99;100.00
41202;BME280;26936;50.524;8.684;2023-02-21T01:37:08;99800.91;;;8.01;100.00
41202;BME280;26936;50.524;8.684;2023-02-21T01:39:52;99802.94;;;8.01;100.00
41202;BME280;26936;50.524;8.684;2023-02-21T01:42:36;99795.28;;;8.01;100.00
41202;BME280;26936;50.524;8.684;2023-02-21T01:48:10;99790.81;;;8.07;100.00
41202;BME280;26936;50.524;8.684;2023-02-21T01:50:57;99790.50;;;8.02;100.00
41202;BME280;26936;50.524;8.684;2023-02-21T01:53:42;99788.00;;;8.07;100.00
41202;BME280;26936;50.524;8.684;2023-02-21T01:56:28;99784.06;;;8.01;100.00
41202;BME280;26936;50.524;8.684;2023-02-21T01:59:12;99786.44;;;8.03;100.00
41202;BME280;26936;50.524;8.684;2023-02-21T02:02:08;99789.69;;;8.01;100.00
41202;BME280;26936;50.524;8.684;2023-02-21T02:04:54;99776.56;;;7.95;100.00
41202;BME280;26936;50.524;8.684;2023-02-21T02:07:38;99779.31;;;7.98;100.00
41202;BME280;26936;50.524;8.684;2023-02-21T02:10:22;99779.75;;;7.97;100.00
41202;BME280;26936;50.524;8.684;2023-02-21T02:16:07;99781.50;;;7.87;100.00
41202;BME280;26936;50.524;8.684;2023-02-21T02:18:54;99778.22;;;7.92;100.00
41202;BME280;26936;50.524;8.684;2023-02-21T02:24:48;99780.81;;;7.80;100.00
41202;BME280;26936;50.524;8.684;2023-02-21T02:27:40;99777.53;;;7.85;100.00
41202;BME280;26936;50.524;8.684;2023-02-21T02:30:42;99780.00;;;7.83;100.00
41202;BME280;26936;50.524;8.684;2023-02-21T02:33:43;99780.28;;;7.88;100.00
41202;BME280;26936;50.524;8.684;2023-02-21T02:36:18;99776.28;;;7.89;100.00
41202;BME280;26936;50.524;8.684;2023-02-21T02:39:10;99773.81;;;7.91;100.00
41202;BME280;26936;50.524;8.684;2023-02-21T02:42:20;99775.06;;;7.90;100.00
41202;BME280;26936;50.524;8.684;2023-02-21T02:44:55;99767.06;;;7.89;100.00
41202;BME280;26936;50.524;8.684;2023-02-21T02:47:24;99765.84;;;7.90;100.00
41202;BME280;26936;50.524;8.684;2023-02-21T02:49:52;99762.31;;;7.86;100.00
41202;BME280;26936;50.524;8.684;2023-02-21T02:52:19;99761.09;;;7.87;100.00
41202;BME280;26936;50.524;8.684;2023-02-21T02:54:44;99768.34;;;7.84;100.00
41202;BME280;26936;50.524;8.684;2023-02-21T02:57:10;99758.00;;;7.81;100.00
41202;BME280;26936;50.524;8.684;2023-02-21T02:59:40;99755.09;;;7.85;100.00
41202;BME280;26936;50.524;8.684;2023-02-21T03:05:05;99751.25;;;7.75;100.00
41202;BME280;26936;50.524;8.684;2023-02-21T03:10:24;99740.91;;;7.72;100.00
41202;BME280;26936;50.524;8.684;2023-02-21T03:15:39;99736.63;;;7.64;100.00
41202;BME280;26936;50.524;8.684;2023-02-21T03:18:28;99741.47;;;7.60;100.00
41202;BME280;26936;50.524;8.684;2023-02-21T03:20:57;99737.63;;;7.51;100.00
41202;BME280;26936;50.524;8.684;2023-02-21T03:23:27;99742.50;;;7.47;100.00
41202;BME280;26936;50.524;8.684;2023-02-21T03:25:54;99743.72;;;7.46;100.00
41202;BME280;26936;50.524;8.684;2023-02-21T03:28:22;99748.22;;;7.40;100.00
41202;BME280;26936;50.524;8.684;2023-02-21T03:30:51;99744.25;;;7.37;100.00
41202;BME280;26936;50.524;8.684;2023-02-21T03:33:17;99755.03;;;7.39;100.00
41202;BME280;26936;50.524;8.684;2023-02-21T03:35:43;99751.94;;;7.30;100.00
41202;BME280;26936;50.524;8.684;2023-02-21T03:38:09;99751.66;;;7.24;100.00
41202;BME280;26936;50.524;8.684;2023-02-21T03:40:34;99757.97;;;7.28;100.00
41202;BME280;26936;50.524;8.684;2023-02-21T03:43:01;99759.25;;;7.24;100.00
41202;BME280;26936;50.524;8.684;2023-02-21T03:45:27;99765.22;;;7.26;100.00
41202;BME280;26936;50.524;8.684;2023-02-21T03:47:52;99760.41;;;7.26;100.00
41202;BME280;26936;50.524;8.684;2023-02-21T03:50:17;99762.47;;;7.22;100.00
41202;BME280;26936;50.524;8.684;2023-02-21T03:52:43;99759.72;;;7.19;100.00
41202;BME280;26936;50.524;8.684;2023-02-21T03:55:08;99758.97;;;7.15;100.00
41202;BME280;26936;50.524;8.684;2023-02-21T03:57:34;99760.19;;;7.14;100.00
41202;BME280;26936;50.524;8.684;2023-02-21T03:59:59;99757.81;;;7.12;100.00
41202;BME280;26936;50.524;8.684;2023-02-21T04:02:25;99763.03;;;7.10;100.00
41202;BME280;26936;50.524;8.684;2023-02-21T04:04:50;99761.47;;;7.09;100.00
41202;BME280;26936;50.524;8.684;2023-02-21T04:07:18;99759.13;;;7.04;100.00
41202;BME280;26936;50.524;8.684;2023-02-21T04:09:44;99757.53;;;7.03;100.00
41202;BME280;26936;50.524;8.684;2023-02-21T04:12:09;99767.53;;;7.04;100.00
41202;BME280;26936;50.524;8.684;2023-02-21T04:14:35;99767.13;;;7.02;100.00
41202;BME280;26936;50.524;8.684;2023-02-21T04:17:00;99768.75;;;7.03;100.00
41202;BME280;26936;50.524;8.684;2023-02-21T04:19:25;99759.97;;;7.01;100.00
41202;BME280;26936;50.524;8.684;2023-02-21T04:21:50;99762.75;;;7.01;100.00
41202;BME280;26936;50.524;8.684;2023-02-21T04:24:16;99765.19;;;6.99;100.00
41202;BME280;26936;50.524;8.684;2023-02-21T04:26:41;99762.75;;;7.01;100.00
41202;BME280;26936;50.524;8.684;2023-02-21T04:29:06;99773.13;;;7.04;100.00
41202;BME280;26936;50.524;8.684;2023-02-21T04:31:32;99766.72;;;7.04;100.00
41202;BME280;26936;50.524;8.684;2023-02-21T04:33:58;99761.53;;;7.02;100.00
41202;BME280;26936;50.524;8.684;2023-02-21T04:36:24;99765.13;;;7.03;100.00
41202;BME280;26936;50.524;8.684;2023-02-21T04:38:49;99756.31;;;7.04;100.00
41202;BME280;26936;50.524;8.684;2023-02-21T04:41:15;99767.91;;;7.06;100.00
41202;BME280;26936;50.524;8.684;2023-02-21T04:43:43;99773.50;;;7.06;100.00
41202;BME280;26936;50.524;8.684;2023-02-21T04:46:09;99766.28;;;7.05;100.00
41202;BME280;26936;50.524;8.684;2023-02-21T04:48:35;99768.25;;;7.08;100.00
41202;BME280;26936;50.524;8.684;2023-02-21T04:51:00;99773.81;;;7.12;100.00
41202;BME280;26936;50.524;8.684;2023-02-21T04:53:26;99763.38;;;7.16;100.00
41202;BME280;26936;50.524;8.684;2023-02-21T04:55:51;99768.13;;;7.19;100.00
41202;BME280;26936;50.524;8.684;2023-02-21T04:58:16;99764.47;;;7.22;100.00
41202;BME280;26936;50.524;8.684;2023-02-21T05:00:41;99752.06;;;7.23;100.00
41202;BME280;26936;50.524;8.684;2023-02-21T05:03:07;99756.84;;;7.26;100.00
41202;BME280;26936;50.524;8.684;2023-02-21T05:05:32;99753.22;;;7.25;100.00
41202;BME280;26936;50.524;8.684;2023-02-21T05:07:57;99752.38;;;7.28;100.00
41202;BME280;26936;50.524;8.684;2023-02-21T05:10:22;99756.41;;;7.27;100.00
41202;BME280;26936;50.524;8.684;2023-02-21T05:12:48;99746.78;;;7.28;100.00
41202;BME280;26936;50.524;8.684;2023-02-21T05:15:13;99750.75;;;7.31;100.00
41202;BME280;26936;50.524;8.684;2023-02-21T05:17:39;99745.16;;;7.31;100.00
41202;BME280;26936;50.524;8.684;2023-02-21T05:20:05;99744.72;;;7.32;100.00
41202;BME280;26936;50.524;8.684;2023-02-21T05:22:36;99740.69;;;7.33;100.00
41202;BME280;26936;50.524;8.684;2023-02-21T05:25:13;99739.13;;;7.32;100.00
41202;BME280;26936;50.524;8.684;2023-02-21T05:27:39;99736.31;;;7.32;100.00
41202;BME280;26936;50.524;8.684;2023-02-21T05:30:04;99736.66;;;7.34;100.00
41202;BME280;26936;50.524;8.684;2023-02-21T05:32:30;99737.06;;;7.36;100.00
41202;BME280;26936;50.524;8.684;2023-02-21T05:34:55;99741.88;;;7.36;100.00
41202;BME280;26936;50.524;8.684;2023-02-21T05:37:20;99735.84;;;7.37;100.00
41202;BME280;26936;50.524;8.684;2023-02-21T05:39:46;99745.03;;;7.38;100.00
41202;BME280;26936;50.524;8.684;2023-02-21T05:42:12;99730.72;;;7.32;100.00
41202;BME280;26936;50.524;8.684;2023-02-21T05:44:37;99732.25;;;7.37;100.00
41202;BME280;26936;50.524;8.684;2023-02-21T05:47:03;99739.00;;;7.39;100.00
41202;BME280;26936;50.524;8.684;2023-02-21T05:49:28;99736.19;;;7.39;100.00
41202;BME280;26936;50.524;8.684;2023-02-21T05:51:54;99741.38;;;7.41;100.00
41202;BME280;26936;50.524;8.684;2023-02-21T05:54:20;99736.16;;;7.43;100.00
41202;BME280;26936;50.524;8.684;2023-02-21T05:56:47;99737.75;;;7.44;100.00
41202;BME280;26936;50.524;8.684;2023-02-21T05:59:13;99738.94;;;7.43;100.00
41202;BME280;26936;50.524;8.684;2023-02-21T06:01:39;99735.31;;;7.46;100.00
41202;BME280;26936;50.524;8.684;2023-02-21T06:04:05;99737.31;;;7.45;100.00
41202;BME280;26936;50.524;8.684;2023-02-21T06:06:32;99732.88;;;7.48;100.00
41202;BME280;26936;50.524;8.684;2023-02-21T06:08:57;99737.75;;;7.44;100.00
41202;BME280;26936;50.524;8.684;2023-02-21T06:11:28;99743.72;;;7.46;100.00
41202;BME280;26936;50.524;8.684;2023-02-21T06:13:56;99727.69;;;7.46;100.00
41202;BME280;26936;50.524;8.684;2023-02-21T06:16:22;99734.09;;;7.47;100.00
41202;BME280;26936;50.524;8.684;2023-02-21T06:18:50;99734.09;;;7.47;100.00
41202;BME280;26936;50.524;8.684;2023-02-21T06:21:16;99726.47;;;7.47;100.00
41202;BME280;26936;50.524;8.684;2023-02-21T06:23:41;99728.88;;;7.49;100.00
41202;BME280;26936;50.524;8.684;2023-02-21T06:26:06;99731.31;;;7.47;100.00
41202;BME280;26936;50.524;8.684;2023-02-21T06:28:32;99734.47;;;7.49;100.00
41202;BME280;26936;50.524;8.684;2023-02-21T06:30:57;99729.28;;;7.47;100.00
41202;BME280;26936;50.524;8.684;2023-02-21T06:33:23;99736.47;;;7.48;100.00
41202;BME280;26936;50.524;8.684;2023-02-21T06:35:48;99732.44;;;7.49;100.00
41202;BME280;26936;50.524;8.684;2023-02-21T06:38:14;99724.41;;;7.51;100.00
41202;BME280;26936;50.524;8.684;2023-02-21T06:40:39;99724.75;;;7.57;100.00
41202;BME280;26936;50.524;8.684;2023-02-21T06:43:05;99729.97;;;7.55;100.00
41202;BME280;26936;50.524;8.684;2023-02-21T06:45:30;99724.38;;;7.55;100.00
41202;BME280;26936;50.524;8.684;2023-02-21T06:47:55;99732.41;;;7.53;100.00
41202;BME280;26936;50.524;8.684;2023-02-21T06:50:20;99722.28;;;7.59;100.00
41202;BME280;26936;50.524;8.684;2023-02-21T06:52:46;99724.59;;;7.64;100.00
41202;BME280;26936;50.524;8.684;2023-02-21T06:55:11;99725.41;;;7.64;100.00
41202;BME280;26936;50.524;8.684;2023-02-21T06:57:36;99713.53;;;7.80;100.00
41202;BME280;26936;50.524;8.684;2023-02-21T07:00:03;99722.03;;;7.76;100.00
41202;BME280;26936;50.524;8.684;2023-02-21T07:02:28;99716.09;;;7.71;100.00
41202;BME280;26936;50.524;8.684;2023-02-21T07:04:54;99714.53;;;7.70;100.00
41202;BME280;26936;50.524;8.684;2023-02-21T07:07:19;99715.97;;;7.78;100.00
41202;BME280;26936;50.524;8.684;2023-02-21T07:09:44;99721.59;;;7.78;100.00
41202;BME280;26936;50.524;8.684;2023-02-21T07:12:10;99729.25;;;7.97;100.00
41202;BME280;26936;50.524;8.684;2023-02-21T07:14:35;99728.03;;;7.98;100.00
41202;BME280;26936;50.524;8.684;2023-02-21T07:17:00;99728.47;;;7.96;100.00
41202;BME280;26936;50.524;8.684;2023-02-21T07:19:26;99726.78;;;8.02;100.00
41202;BME280;26936;50.524;8.684;2023-02-21T07:21:51;99735.09;;;8.06;100.00
41202;BME280;26936;50.524;8.684;2023-02-21T07:24:16;99736.66;;;8.10;100.00
41202;BME280;26936;50.524;8.684;2023-02-21T07:26:42;99722.03;;;8.19;100.00
41202;BME280;26936;50.524;8.684;2023-02-21T07:29:07;99731.16;;;8.27;100.00
41202;BME280;26936;50.524;8.684;2023-02-21T07:31:32;99720.66;;;8.31;100.00
41202;BME280;26936;50.524;8.684;2023-02-21T07:33:58;99717.28;;;8.39;100.00
41202;BME280;26936;50.524;8.684;2023-02-21T07:36:23;99716.38;;;8.46;100.00
41202;BME280;26936;50.524;8.684;2023-02-21T07:38:49;99716.09;;;8.60;100.00
41202;BME280;26936;50.524;8.684;2023-02-21T07:41:15;99719.84;;;8.73;100.00
41202;BME280;26936;50.524;8.684;2023-02-21T07:43:41;99731.84;;;8.93;100.00
41202;BME280;26936;50.524;8.684;2023-02-21T07:46:13;99725.00;;;9.13;100.00
41202;BME280;26936;50.524;8.684;2023-02-21T07:48:39;99733.38;;;9.33;98.95
41202;BME280;26936;50.524;8.684;2023-02-21T07:51:08;99738.16;;;9.52;97.84
41202;BME280;26936;50.524;8.684;2023-02-21T07:53:34;99744.56;;;9.52;97.36
41202;BME280;26936;50.524;8.684;2023-02-21T07:56:00;99741.03;;;9.48;97.41
41202;BME280;26936;50.524;8.684;2023-02-21T07:58:25;99743.38;;;9.34;97.79
41202;BME280;26936;50.524;8.684;2023-02-21T08:00:50;99743.03;;;9.32;98.29
41202;BME280;26936;50.524;8.684;2023-02-21T08:03:16;99743.53;;;9.27;98.85
41202;BME280;26936;50.524;8.684;2023-02-21T08:05:41;99742.63;;;9.14;100.00
41202;BME280;26936;50.524;8.684;2023-02-21T08:08:08;99743.41;;;9.14;100.00
41202;BME280;26936;50.524;8.684;2023-02-21T08:10:34;99748.69;;;9.12;100.00
41202;BME280;26936;50.524;8.684;2023-02-21T08:12:59;99743.06;;;9.12;100.00
41202;BME280;26936;50.524;8.684;2023-02-21T08:15:24;99748.69;;;9.12;100.00
41202;BME280;26936;50.524;8.684;2023-02-21T08:17:50;99746.44;;;9.04;100.00
41202;BME280;26936;50.524;8.684;2023-02-21T08:20:16;99742.78;;;9.07;100.00
41202;BME280;26936;50.524;8.684;2023-02-21T08:22:41;99742.28;;;9.12;100.00
41202;BME280;26936;50.524;8.684;2023-02-21T08:25:09;99752.94;;;9.01;100.00
41202;BME280;26936;50.524;8.684;2023-02-21T08:27:37;99747.63;;;9.06;99.55
41202;BME280;26936;50.524;8.684;2023-02-21T08:30:03;99739.03;;;9.13;99.46
41202;BME280;26936;50.524;8.684;2023-02-21T08:32:28;99743.06;;;9.12;100.00
41202;BME280;26936;50.524;8.684;2023-02-21T08:34:53;99739.88;;;9.10;100.00
41202;BME280;26936;50.524;8.684;2023-02-21T08:37:18;99738.94;;;9.17;100.00
41202;BME280;26936;50.524;8.684;2023-02-21T08:39:48;99740.41;;;9.25;100.00
41202;BME280;26936;50.524;8.684;2023-02-21T08:42:15;99733.53;;;9.26;100.00
41202;BME280;26936;50.524;8.684;2023-02-21T08:44:44;99734.91;;;9.18;99.62
41202;BME280;26936;50.524;8.684;2023-02-21T08:47:11;99735.91;;;9.27;99.71
41202;BME280;26936;50.524;8.684;2023-02-21T08:49:36;99732.22;;;9.30;99.47
41202;BME280;26936;50.524;8.684;2023-02-21T08:52:07;99726.97;;;9.32;99.68
41202;BME280;26936;50.524;8.684;2023-02-21T08:54:33;99729.78;;;9.32;98.82
41202;BME280;26936;50.524;8.684;2023-02-21T08:56:58;99734.44;;;9.39;98.74
41202;BME280;26936;50.524;8.684;2023-02-21T08:59:24;99733.03;;;9.47;97.71
41202;BME280;26936;50.524;8.684;2023-02-21T09:01:49;99729.44;;;9.46;98.81
41202;BME280;26936;50.524;8.684;2023-02-21T09:04:14;99729.63;;;9.55;97.60
41202;BME280;26936;50.524;8.684;2023-02-21T09:06:40;99733.28;;;9.36;98.90
41202;BME280;26936;50.524;8.684;2023-02-21T09:09:05;99726.38;;;9.57;97.81
41202;BME280;26936;50.524;8.684;2023-02-21T09:11:30;99731.22;;;9.56;98.23
41202;BME280;26936;50.524;8.684;2023-02-21T09:13:56;99723.75;;;9.66;97.46
41202;BME280;26936;50.524;8.684;2023-02-21T09:16:21;99726.03;;;9.71;97.29
41202;BME280;26936;50.524;8.684;2023-02-21T09:18:57;99719.97;;;9.73;97.61
41202;BME280;26936;50.524;8.684;2023-02-21T09:21:26;99723.59;;;9.73;97.34
41202;BME280;26936;50.524;8.684;2023-02-21T09:23:55;99716.09;;;9.83;96.40
41202;BME280;26936;50.524;8.684;2023-02-21T09:26:21;99722.38;;;9.90;96.61
41202;BME280;26936;50.524;8.684;2023-02-21T09:28:48;99728.06;;;10.03;96.51
41202;BME280;26936;50.524;8.684;2023-02-21T09:31:14;99732.38;;;10.07;96.72
41202;BME280;26936;50.524;8.684;2023-02-21T09:33:39;99728.25;;;10.12;96.08
41202;BME280;26936;50.524;8.684;2023-02-21T09:36:06;99728.16;;;10.15;95.37
41202;BME280;26936;50.524;8.684;2023-02-21T09:38:31;99736.44;;;10.22;95.51
41202;BME280;26936;50.524;8.684;2023-02-21T09:41:03;99735.53;;;10.25;95.65
41202;BME280;26936;50.524;8.684;2023-02-21T09:43:35;99735.44;;;10.29;95.14
41202;BME280;26936;50.524;8.684;2023-02-21T09:46:06;99732.91;;;10.34;94.55
41202;BME280;26936;50.524;8.684;2023-02-21T09:48:33;99726.56;;;10.30;93.65
41202;BME280;26936;50.524;8.684;2023-02-21T09:51:02;99734.38;;;10.39;94.34
41202;BME280;26936;50.524;8.684;2023-02-21T09:53:32;99733.84;;;10.44;92.61
41202;BME280;26936;50.524;8.684;2023-02-21T09:56:03;99733.84;;;10.44;92.78
41202;BME280;26936;50.524;8.684;2023-02-21T09:58:29;99730.94;;;10.47;93.11
41202;BME280;26936;50.524;8.684;2023-02-21T10:00:57;99729.69;;;10.48;93.27
41202;BME280;26936;50.524;8.684;2023-02-21T10:06:34;99732.31;;;10.55;93.85
41202;BME280;26936;50.524;8.684;2023-02-21T10:09:17;99738.63;;;10.59;94.10
41202;BME280;26936;50.524;8.684;2023-02-21T10:14:18;99739.66;;;10.65;94.11
41202;BME280;26936;50.524;8.684;2023-02-21T10:17:12;99744.66;;;10.74;94.41
41202;BME280;26936;50.524;8.684;2023-02-21T10:19:47;99743.88;;;10.73;93.54
41202;BME280;26936;50.524;8.684;2023-02-21T10:22:18;99740.38;;;10.69;93.93
41202;BME280;26936;50.524;8.684;2023-02-21T10:24:44;99731.81;;;10.73;94.55
41202;BME280;26936;50.524;8.684;2023-02-21T10:27:19;99734.63;;;10.73;93.85
41202;BME280;26936;50.524;8.684;2023-02-21T10:30:00;99740.63;;;10.75;94.38
41202;BME280;26936;50.524;8.684;2023-02-21T10:32:28;99733.53;;;10.83;94.41
41202;BME280;26936;50.524;8.684;2023-02-21T10:34:54;99735.81;;;10.88;93.35
41202;BME280;26936;50.524;8.684;2023-02-21T10:39:48;99737.75;;;11.04;92.03
41202;BME280;26936;50.524;8.684;2023-02-21T10:42:38;99739.13;;;11.12;92.88
41202;BME280;26936;50.524;8.684;2023-02-21T10:45:08;99733.28;;;11.06;94.19
41202;BME280;26936;50.524;8.684;2023-02-21T10:47:48;99734.03;;;11.07;93.81
41202;BME280;26936;50.524;8.684;2023-02-21T10:53:30;99732.22;;;11.00;94.64
41202;BME280;26936;50.524;8.684;2023-02-21T10:58:58;99723.63;;;11.32;92.42
41202;BME280;26936;50.524;8.684;2023-02-21T11:03:59;99720.66;;;11.23;94.13
41202;BME280;26936;50.524;8.684;2023-02-21T11:06:38;99721.81;;;11.26;94.04
41202;BME280;26936;50.524;8.684;2023-02-21T11:12:46;99715.56;;;11.31;93.40
41202;BME280;26936;50.524;8.684;2023-02-21T11:19:43;99707.00;;;11.34;94.40
41202;BME280;26936;50.524;8.684;2023-02-21T11:22:09;99708.59;;;11.48;94.32
41202;BME280;26936;50.524;8.684;2023-02-21T11:24:46;99701.19;;;11.66;94.77
41202;BME280;26936;50.524;8.684;2023-02-21T11:27:13;99698.41;;;12.13;93.75
41202;BME280;26936;50.524;8.684;2023-02-21T11:29:42;99696.91;;;12.21;92.62
41202;BME280;26936;50.524;8.684;2023-02-21T11:32:18;99691.59;;;12.23;92.13
41202;BME280;26936;50.524;8.684;2023-02-21T11:34:46;99690.72;;;12.13;92.39
41202;BME280;26936;50.524;8.684;2023-02-21T11:37:13;99687.72;;;12.29;91.58
41202;BME280;26936;50.524;8.684;2023-02-21T11:39:39;99683.81;;;12.49;89.21
41202;BME280;26936;50.524;8.684;2023-02-21T11:42:25;99679.53;;;12.87;88.19
41202;BME280;26936;50.524;8.684;2023-02-21T11:45:12;99677.94;;;13.29;85.78
41202;BME280;26936;50.524;8.684;2023-02-21T11:47:45;99675.06;;;13.60;83.23
41202;BME280;26936;50.524;8.684;2023-02-21T11:50:24;99669.34;;;13.91;81.75
41202;BME280;26936;50.524;8.684;2023-02-21T11:55:37;99657.13;;;14.21;81.28
41202;BME280;26936;50.524;8.684;2023-02-21T11:58:24;99662.84;;;14.39;78.76
41202;BME280;26936;50.524;8.684;2023-02-21T12:03:42;99646.69;;;14.90;77.02
41202;BME280;26936;50.524;8.684;2023-02-21T12:06:30;99648.63;;;14.75;75.04
41202;BME280;26936;50.524;8.684;2023-02-21T12:09:01;99650.69;;;14.65;76.60
41202;BME280;26936;50.524;8.684;2023-02-21T12:11:39;99651.31;;;14.42;77.99
41202;BME280;26936;50.524;8.684;2023-02-21T12:14:51;99650.22;;;14.40;77.41
41202;BME280;26936;50.524;8.684;2023-02-21T12:19:43;99642.03;;;14.42;77.45
41202;BME280;26936;50.524;8.684;2023-02-21T12:22:44;99638.44;;;14.32;79.55
41202;BME280;26936;50.524;8.684;2023-02-21T12:25:22;99628.81;;;14.48;79.49
41202;BME280;26936;50.524;8.684;2023-02-21T12:31:30;99620.59;;;14.05;80.91
41202;BME280;26936;50.524;8.684;2023-02-21T12:40:06;99609.63;;;14.52;80.52
41202;BME280;26936;50.524;8.684;2023-02-21T12:50:39;99592.50;;;15.39;74.59
41202;BME280;26936;50.524;8.684;2023-02-21T12:53:09;99587.28;;;15.46;72.38
41202;BME280;26936;50.524;8.684;2023-02-21T12:55:39;99581.94;;;14.98;74.23
41202;BME280;26936;50.524;8.684;2023-02-21T12:58:27;99583.69;;;15.28;73.18
41202;BME280;26936;50.524;8.684;2023-02-21T13:01:03;99580.06;;;15.27;75.35
41202;BME280;26936;50.524;8.684;2023-02-21T13:03:57;99566.94;;;15.39;73.74
41202;BME280;26936;50.524;8.684;2023-02-21T13:06:31;99557.81;;;15.35;73.59
41202;BME280;26936;50.524;8.684;2023-02-21T13:11:55;99557.13;;;14.74;78.05
41202;BME280;26936;50.524;8.684;2023-02-21T13:14:26;99548.91;;;14.76;77.01
41202;BME280;26936;50.524;8.684;2023-02-21T13:16:52;99552.84;;;14.79;76.63
41202;BME280;26936;50.524;8.684;2023-02-21T13:19:18;99550.97;;;14.67;77.52
41202;BME280;26936;50.524;8.684;2023-02-21T13:24:44;99549.41;;;14.66;77.93
41202;BME280;26936;50.524;8.684;2023-02-21T13:29:50;99536.38;;;14.50;77.37
41202;BME280;26936;50.524;8.684;2023-02-21T13:32:18;99528.56;;;14.09;79.92
41202;BME280;26936;50.524;8.684;2023-02-21T13:34:52;99527.59;;;13.85;80.67
41202;BME280;26936;50.524;8.684;2023-02-21T13:37:20;99523.19;;;14.29;79.83
41202;BME280;26936;50.524;8.684;2023-02-21T13:39:59;99522.25;;;14.14;80.18
41202;BME280;26936;50.524;8.684;2023-02-21T13:42:33;99514.56;;;13.70;81.85
41202;BME280;26936;50.524;8.684;2023-02-21T13:45:19;99520.06;;;14.09;81.01
41202;BME280;26936;50.524;8.684;2023-02-21T13:55:34;99504.78;;;14.16;81.32
41202;BME280;26936;50.524;8.684;2023-02-21T14:05:19;99489.69;;;14.01;81.05
41202;BME280;26936;50.524;8.684;2023-02-21T14:07:47;99486.22;;;13.97;81.19
41202;BME280;26936;50.524;8.684;2023-02-21T14:10:26;99478.69;;;14.03;80.39
41202;BME280;26936;50.524;8.684;2023-02-21T14:12:55;99474.44;;;13.98;80.06
41202;BME280;26936;50.524;8.684;2023-02-21T14:15:21;99477.91;;;13.84;80.99
41202;BME280;26936;50.524;8.684;2023-02-21T14:17:47;99465.19;;;13.80;81.60
41202;BME280;26936;50.524;8.684;2023-02-21T14:20:19;99480.72;;;14.02;79.69
41202;BME280;26936;50.524;8.684;2023-02-21T14:22:49;99463.91;;;13.99;80.06
41202;BME280;26936;50.524;8.684;2023-02-21T14:25:18;99469.38;;;14.20;78.88
41202;BME280;26936;50.524;8.684;2023-02-21T14:27:45;99466.88;;;13.95;80.68
41202;BME280;26936;50.524;8.684;2023-02-21T14:32:44;99462.50;;;13.76;81.75
41202;BME280;26936;50.524;8.684;2023-02-21T14:38:05;99462.03;;;13.96;81.12
41202;BME280;26936;50.524;8.684;2023-02-21T14:40:46;99449.41;;;14.06;80.92
41202;BME280;26936;50.524;8.684;2023-02-21T14:43:31;99451.81;;;13.80;81.80
41202;BME280;26936;50.524;8.684;2023-02-21T14:52:24;99441.09;;;13.84;81.14
41202;BME280;26936;50.524;8.684;2023-02-21T14:55:20;99445.94;;;14.02;80.06
41202;BME280;26936;50.524;8.684;2023-02-21T15:03:29;99438.41;;;14.08;80.03
41202;BME280;26936;50.524;8.684;2023-02-21T15:06:08;99438.44;;;13.90;80.29
41202;BME280;26936;50.524;8.684;2023-02-21T15:08:44;99441.25;;;13.81;80.41
41202;BME280;26936;50.524;8.684;2023-02-21T15:16:42;99439.38;;;13.78;81.97
41202;BME280;26936;50.524;8.684;2023-02-21T15:19:19;99434.38;;;13.82;80.91